createdAt,value
2023-04-16T00:01:30.988Z,24.94
2023-04-16T00:03:36.286Z,24.93
2023-04-16T00:05:42.076Z,24.9
2023-04-16T00:07:47.277Z,24.9
2023-04-16T00:09:52.386Z,24.89
2023-04-16T00:11:57.450Z,24.88
2023-04-16T00:14:02.513Z,24.85
2023-04-16T00:16:07.601Z,24.85
2023-04-16T00:18:12.605Z,24.84
2023-04-16T00:20:17.614Z,24.84
2023-04-16T00:22:22.581Z,24.8
2023-04-16T00:24:27.601Z,24.79
2023-04-16T00:26:32.579Z,24.76
2023-04-16T00:28:37.696Z,24.76
2023-04-16T00:30:42.717Z,24.74
2023-04-16T00:32:47.810Z,24.72
2023-04-16T00:34:52.957Z,24.72
2023-04-16T00:36:57.940Z,24.68
2023-04-16T00:39:03.011Z,24.71
2023-04-16T00:41:08.127Z,24.72
2023-04-16T00:43:13.194Z,24.7
2023-04-16T00:45:18.154Z,24.69
2023-04-16T00:47:23.185Z,24.66
2023-04-16T00:49:28.319Z,24.62
2023-04-16T00:51:33.297Z,24.61
2023-04-16T00:53:38.298Z,24.61
2023-04-16T00:55:43.369Z,24.63
2023-04-16T00:57:48.379Z,24.63
2023-04-16T00:59:53.416Z,24.61
2023-04-16T01:01:58.572Z,24.59
2023-04-16T01:04:04.060Z,24.58
2023-04-16T01:06:09.514Z,24.57
2023-04-16T01:08:14.487Z,24.54
2023-04-16T01:10:19.489Z,24.56
2023-04-16T01:12:24.452Z,24.57
2023-04-16T01:14:29.465Z,24.57
2023-04-16T01:16:34.500Z,24.59
2023-04-16T01:18:39.517Z,24.59
2023-04-16T01:20:44.582Z,24.59
2023-04-16T01:22:49.522Z,24.61
2023-04-16T01:24:54.640Z,24.65
2023-04-16T01:26:59.634Z,24.69
2023-04-16T01:29:04.653Z,24.73
2023-04-16T01:31:10.066Z,24.74
2023-04-16T01:33:15.087Z,24.76
2023-04-16T01:35:20.119Z,24.78
2023-04-16T01:37:25.203Z,24.8
2023-04-16T01:39:30.150Z,24.79
2023-04-16T01:41:35.164Z,24.78
2023-04-16T01:43:40.504Z,24.79
2023-04-16T01:45:45.559Z,24.78
2023-04-16T01:47:50.553Z,24.78
2023-04-16T01:49:55.814Z,24.77
2023-04-16T01:52:00.785Z,24.76
2023-04-16T01:54:05.864Z,24.74
2023-04-16T01:56:10.879Z,24.75
2023-04-16T01:58:15.888Z,24.74
2023-04-16T02:00:20.977Z,24.72
2023-04-16T02:02:26.032Z,24.73
2023-04-16T02:04:31.482Z,24.71
2023-04-16T02:06:36.414Z,24.71
2023-04-16T02:08:41.377Z,24.68
2023-04-16T02:10:46.380Z,24.68
2023-04-16T02:12:51.342Z,24.69
2023-04-16T02:14:56.318Z,24.67
2023-04-16T02:17:01.326Z,24.69
2023-04-16T02:19:06.328Z,24.68
2023-04-16T02:21:12.060Z,24.67
2023-04-16T02:23:17.038Z,24.64
2023-04-16T02:27:10.410Z,24.61
2023-04-16T02:29:15.477Z,24.63
2023-04-16T02:31:20.588Z,24.61
2023-04-16T02:33:25.767Z,24.62
2023-04-16T02:35:30.759Z,24.62
2023-04-16T02:37:35.790Z,24.57
2023-04-16T02:39:40.802Z,24.55
2023-04-16T02:41:45.831Z,24.56
2023-04-16T02:43:50.796Z,24.56
2023-04-16T02:45:55.801Z,24.53
2023-04-16T02:48:01.104Z,24.51
2023-04-16T02:50:06.475Z,24.48
2023-04-16T02:52:12.172Z,24.48
2023-04-16T02:54:19.618Z,24.47
2023-04-16T02:56:24.571Z,24.44
2023-04-16T02:58:29.596Z,24.43
2023-04-16T03:00:34.584Z,24.43
2023-04-16T03:02:39.663Z,24.41
2023-04-16T03:04:45.208Z,24.43
2023-04-16T03:06:50.229Z,24.4
2023-04-16T03:08:55.205Z,24.41
2023-04-16T03:11:00.212Z,24.38
2023-04-16T03:13:05.292Z,24.34
2023-04-16T03:15:10.270Z,24.34
2023-04-16T03:17:15.353Z,24.32
2023-04-16T03:19:20.592Z,24.35
2023-04-16T03:21:25.612Z,24.37
2023-04-16T03:23:30.672Z,24.4
2023-04-16T03:25:35.743Z,24.42
2023-04-16T03:27:40.895Z,24.38
2023-04-16T03:29:46.053Z,24.36
2023-04-16T03:31:51.227Z,24.35
2023-04-16T03:33:56.326Z,24.35
2023-04-16T03:36:01.399Z,24.32
2023-04-16T03:38:06.424Z,24.29
2023-04-16T03:40:11.415Z,24.29
2023-04-16T03:42:16.501Z,24.25
2023-04-16T03:44:21.497Z,24.25
2023-04-16T03:46:26.562Z,24.24
2023-04-16T03:48:31.704Z,24.24
2023-04-16T03:50:36.764Z,24.24
2023-04-16T03:52:41.854Z,24.24
2023-04-16T03:54:46.902Z,24.25
2023-04-16T03:56:52.072Z,24.26
2023-04-16T03:58:57.202Z,24.25
2023-04-16T04:01:02.222Z,24.23
2023-04-16T04:03:07.397Z,24.23
2023-04-16T04:05:13.078Z,24.22
2023-04-16T04:07:18.105Z,24.22
2023-04-16T04:09:23.247Z,24.2
2023-04-16T04:11:28.321Z,24.2
2023-04-16T04:13:33.395Z,24.19
2023-04-16T04:15:38.464Z,24.17
2023-04-16T04:17:43.808Z,24.17
2023-04-16T04:20:00.254Z,24.15
2023-04-16T04:22:06.242Z,24.19
2023-04-16T04:24:11.282Z,24.22
2023-04-16T04:26:16.346Z,24.2
2023-04-16T04:28:21.643Z,24.21
2023-04-16T04:30:26.671Z,24.19
2023-04-16T04:32:31.718Z,24.16
2023-04-16T04:34:36.882Z,24.13
2023-04-16T04:36:41.949Z,24.15
2023-04-16T04:38:46.984Z,24.16
2023-04-16T04:40:52.021Z,24.15
2023-04-16T04:42:57.091Z,24.12
2023-04-16T04:45:02.110Z,24.08
2023-04-16T04:47:07.146Z,24.06
2023-04-16T04:49:12.216Z,24.06
2023-04-16T04:51:17.366Z,24.06
2023-04-16T04:53:22.444Z,24.04
2023-04-16T04:55:28.043Z,24.05
2023-04-16T04:57:33.111Z,24.07
2023-04-16T04:59:38.220Z,24.08
2023-04-16T05:01:43.259Z,24.06
2023-04-16T05:03:48.523Z,24.03
2023-04-16T05:05:53.843Z,24.01
2023-04-16T05:07:58.945Z,24
2023-04-16T05:10:04.048Z,24.01
2023-04-16T05:12:09.193Z,24
2023-04-16T05:14:14.206Z,24
2023-04-16T05:16:19.334Z,24.01
2023-04-16T05:18:24.562Z,23.99
2023-04-16T05:20:29.672Z,23.98
2023-04-16T05:22:34.822Z,23.97
2023-04-16T05:24:39.871Z,23.95
2023-04-16T05:26:44.958Z,23.95
2023-04-16T05:28:49.991Z,23.97
2023-04-16T05:30:55.066Z,23.96
2023-04-16T05:33:00.871Z,23.96
2023-04-16T05:35:06.033Z,23.96
2023-04-16T05:37:11.087Z,23.97
2023-04-16T05:39:16.217Z,23.94
2023-04-16T05:41:21.288Z,23.96
2023-04-16T05:43:26.278Z,23.97
2023-04-16T05:45:31.298Z,23.96
2023-04-16T05:47:36.375Z,23.93
2023-04-16T05:49:41.531Z,23.94
2023-04-16T05:51:46.567Z,23.91
2023-04-16T05:53:53.934Z,23.91
2023-04-16T05:55:59.022Z,23.94
2023-04-16T05:58:04.049Z,23.95
2023-04-16T06:00:09.087Z,23.94
2023-04-16T06:02:14.298Z,23.92
2023-04-16T06:04:19.734Z,23.92
2023-04-16T06:06:25.171Z,23.89
2023-04-16T06:08:30.231Z,23.87
2023-04-16T06:10:35.245Z,23.9
2023-04-16T06:12:40.303Z,23.9
2023-04-16T06:14:45.307Z,23.93
2023-04-16T06:16:50.365Z,23.94
2023-04-16T06:18:55.453Z,23.96
2023-04-16T06:21:00.511Z,23.98
2023-04-16T06:23:05.581Z,23.97
2023-04-16T06:25:10.595Z,23.96
2023-04-16T06:27:15.622Z,23.96
2023-04-16T06:29:22.497Z,23.94
2023-04-16T06:31:44.516Z,23.95
2023-04-16T06:33:49.742Z,23.94
2023-04-16T06:35:54.852Z,23.9
2023-04-16T06:37:59.897Z,23.86
2023-04-16T06:40:04.947Z,23.84
2023-04-16T06:42:10.060Z,23.82
2023-04-16T06:44:15.104Z,23.82
2023-04-16T06:46:20.144Z,23.79
2023-04-16T06:48:25.345Z,23.78
2023-04-16T06:50:30.454Z,23.76
2023-04-16T06:52:35.598Z,23.76
2023-04-16T06:54:40.634Z,23.75
2023-04-16T06:56:45.698Z,23.78
2023-04-16T06:58:50.681Z,23.76
2023-04-16T07:00:55.719Z,23.77
2023-04-16T07:03:00.945Z,23.77
2023-04-16T07:05:06.861Z,23.78
2023-04-16T07:07:12.002Z,23.8
2023-04-16T07:09:17.104Z,23.83
2023-04-16T07:11:22.137Z,23.86
2023-04-16T07:13:27.196Z,23.89
2023-04-16T07:15:32.193Z,23.95
2023-04-16T07:17:37.284Z,23.98
2023-04-16T07:19:42.523Z,24.03
2023-04-16T07:21:47.567Z,24.07
2023-04-16T07:23:52.578Z,24.08
2023-04-16T07:25:57.646Z,24.09
2023-04-16T07:28:02.716Z,24.13
2023-04-16T07:30:07.774Z,24.18
2023-04-16T07:32:14.760Z,24.22
2023-04-16T07:34:20.624Z,24.26
2023-04-16T07:36:25.710Z,24.27
2023-04-16T07:38:30.771Z,24.29
2023-04-16T07:40:35.894Z,24.32
2023-04-16T07:42:41.030Z,24.32
2023-04-16T07:44:46.056Z,24.29
2023-04-16T07:46:51.133Z,24.24
2023-04-16T07:48:56.621Z,24.18
2023-04-16T07:51:01.700Z,24.15
2023-04-16T07:53:06.804Z,24.17
2023-04-16T07:55:11.881Z,24.21
2023-04-16T07:57:16.895Z,24.28
2023-04-16T07:59:23.831Z,24.34
2023-04-16T08:01:30.509Z,24.38
2023-04-16T08:03:35.797Z,24.43
2023-04-16T08:05:41.696Z,24.47
2023-04-16T08:07:46.759Z,24.47
2023-04-16T08:09:51.806Z,24.53
2023-04-16T08:11:56.942Z,24.54
2023-04-16T08:14:01.999Z,24.57
2023-04-16T08:16:07.098Z,24.58
2023-04-16T08:18:12.302Z,24.57
2023-04-16T08:20:19.184Z,24.61
2023-04-16T08:22:24.496Z,24.64
2023-04-16T08:24:29.591Z,24.64
2023-04-16T08:26:34.690Z,24.66
2023-04-16T08:28:39.770Z,24.69
2023-04-16T08:30:44.770Z,24.72
2023-04-16T08:32:50.196Z,24.73
2023-04-16T08:34:55.495Z,24.75
2023-04-16T08:37:00.472Z,24.75
2023-04-16T08:39:05.554Z,24.76
2023-04-16T08:41:10.846Z,24.75
2023-04-16T08:43:15.916Z,24.76
2023-04-16T08:45:21.087Z,24.77
2023-04-16T08:47:26.175Z,24.74
2023-04-16T08:49:31.339Z,24.71
2023-04-16T08:51:36.379Z,24.7
2023-04-16T08:53:41.431Z,24.68
2023-04-16T08:55:46.478Z,24.68
2023-04-16T08:57:51.506Z,24.7
2023-04-16T08:59:56.556Z,24.71
2023-04-16T09:02:01.703Z,24.72
2023-04-16T09:04:07.300Z,24.73
2023-04-16T09:06:12.969Z,24.74
2023-04-16T09:08:17.991Z,24.74
2023-04-16T09:10:23.022Z,24.74
2023-04-16T09:12:28.155Z,24.76
2023-04-16T09:14:33.286Z,24.77
2023-04-16T09:16:38.608Z,24.77
2023-04-16T09:18:44.136Z,24.79
2023-04-16T09:20:49.201Z,24.81
2023-04-16T09:22:54.330Z,24.81
2023-04-16T09:24:59.345Z,24.82
2023-04-16T09:27:04.438Z,24.82
2023-04-16T09:29:09.947Z,24.84
2023-04-16T09:31:15.686Z,24.87
2023-04-16T09:33:21.027Z,24.86
2023-04-16T09:35:26.713Z,24.87
2023-04-16T09:37:31.831Z,24.89
2023-04-16T09:39:36.915Z,24.9
2023-04-16T09:41:42.055Z,24.91
2023-04-16T09:43:47.060Z,24.92
2023-04-16T09:45:52.162Z,24.93
2023-04-16T09:47:57.502Z,24.93
2023-04-16T09:50:02.725Z,24.95
2023-04-16T09:52:07.816Z,24.95
2023-04-16T09:54:12.881Z,24.96
2023-04-16T09:56:17.980Z,24.98
2023-04-16T09:58:23.043Z,24.97
2023-04-16T10:00:28.100Z,24.99
2023-04-16T10:02:33.292Z,25
2023-04-16T10:04:38.860Z,25
2023-04-16T10:06:44.240Z,25
2023-04-16T10:08:50.331Z,24.99
2023-04-16T10:10:55.554Z,24.98
2023-04-16T10:13:00.582Z,24.97
2023-04-16T10:15:05.643Z,24.95
2023-04-16T10:17:10.792Z,24.94
2023-04-16T10:19:16.014Z,24.94
2023-04-16T10:21:21.193Z,24.95
2023-04-16T10:23:26.253Z,24.97
2023-04-16T10:25:31.329Z,24.96
2023-04-16T10:27:36.378Z,24.96
2023-04-16T10:29:41.559Z,24.98
2023-04-16T10:31:46.689Z,24.99
2023-04-16T10:33:51.730Z,24.98
2023-04-16T10:36:06.901Z,24.97
2023-04-16T10:38:12.599Z,24.95
2023-04-16T10:40:17.766Z,24.94
2023-04-16T10:42:22.895Z,24.92
2023-04-16T10:44:27.962Z,24.92
2023-04-16T10:46:33.086Z,24.91
2023-04-16T10:48:46.678Z,24.91
2023-04-16T10:50:54.899Z,24.91
2023-04-16T10:52:59.995Z,24.9
2023-04-16T10:55:05.053Z,24.91
2023-04-16T10:57:10.099Z,24.91
2023-04-16T10:59:15.130Z,24.9
2023-04-16T11:01:20.178Z,24.9
2023-04-16T11:03:25.476Z,24.91
2023-04-16T11:05:31.052Z,24.89
2023-04-16T11:07:36.185Z,24.9
2023-04-16T11:09:41.237Z,24.9
2023-04-16T11:11:46.290Z,24.91
2023-04-16T11:13:51.356Z,24.91
2023-04-16T11:15:56.464Z,24.91
2023-04-16T11:18:01.830Z,24.9
2023-04-16T11:20:17.582Z,24.91
2023-04-16T11:22:25.726Z,24.9
2023-04-16T11:24:30.810Z,24.92
2023-04-16T11:26:35.974Z,24.91
2023-04-16T11:28:41.006Z,24.92
2023-04-16T11:30:46.155Z,24.93
2023-04-16T11:32:51.354Z,24.92
2023-04-16T11:34:56.660Z,24.94
2023-04-16T11:37:01.707Z,24.94
2023-04-16T11:39:06.787Z,24.95
2023-04-16T11:41:12.360Z,24.98
2023-04-16T11:43:17.373Z,24.96
2023-04-16T11:45:22.450Z,24.99
2023-04-16T11:47:27.656Z,25.01
2023-04-16T11:49:33.332Z,25.02
2023-04-16T11:51:38.364Z,25.03
2023-04-16T11:53:43.421Z,25.04
2023-04-16T11:55:48.491Z,25.07
2023-04-16T11:57:53.586Z,25.08
2023-04-16T12:00:01.120Z,25.1
2023-04-16T12:02:11.935Z,25.13
2023-04-16T12:04:17.415Z,25.14
2023-04-16T12:06:24.349Z,25.15
2023-04-16T12:08:29.562Z,25.16
2023-04-16T12:10:34.677Z,25.17
2023-04-16T12:12:39.797Z,25.23
2023-04-16T12:14:44.914Z,25.25
2023-04-16T12:16:49.993Z,25.25
2023-04-16T12:18:55.409Z,25.28
2023-04-16T12:21:00.595Z,25.31
2023-04-16T12:23:05.708Z,25.34
2023-04-16T12:25:10.834Z,25.34
2023-04-16T12:27:16.051Z,25.38
2023-04-16T12:29:21.207Z,25.4
2023-04-16T12:31:26.400Z,25.45
2023-04-16T12:33:31.644Z,25.47
2023-04-16T12:35:36.874Z,25.48
2023-04-16T12:37:41.900Z,25.52
2023-04-16T12:39:48.028Z,25.52
2023-04-16T12:41:53.224Z,25.53
2023-04-16T12:43:58.294Z,25.56
2023-04-16T12:46:04.345Z,25.55
2023-04-16T12:48:09.824Z,25.56
2023-04-16T12:50:14.886Z,25.56
2023-04-16T12:52:21.155Z,25.54
2023-04-16T12:54:27.704Z,25.52
2023-04-16T12:56:32.905Z,25.53
2023-04-16T12:58:37.989Z,25.52
2023-04-16T13:00:43.059Z,25.52
2023-04-16T13:02:48.187Z,25.51
2023-04-16T13:04:53.894Z,25.48
2023-04-16T13:06:59.012Z,25.49
2023-04-16T13:09:04.084Z,25.49
2023-04-16T13:11:09.153Z,25.49
2023-04-16T13:13:14.231Z,25.5
2023-04-16T13:15:19.239Z,25.49
2023-04-16T13:17:24.311Z,25.48
2023-04-16T13:19:29.782Z,25.49
2023-04-16T13:21:34.874Z,25.48
2023-04-16T13:23:39.962Z,25.5
2023-04-16T13:25:44.996Z,25.51
2023-04-16T13:27:53.226Z,25.49
2023-04-16T13:29:58.263Z,25.5
2023-04-16T13:32:03.450Z,25.5
2023-04-16T13:34:08.480Z,25.49
2023-04-16T13:36:13.632Z,25.49
2023-04-16T13:38:18.692Z,25.51
2023-04-16T13:40:23.903Z,25.52
2023-04-16T13:42:28.910Z,25.53
2023-04-16T13:44:33.998Z,25.53
2023-04-16T13:46:39.193Z,25.55
2023-04-16T13:48:44.428Z,25.56
2023-04-16T13:50:49.469Z,25.56
2023-04-16T13:52:54.531Z,25.56
2023-04-16T13:55:00.186Z,25.57
2023-04-16T13:57:05.448Z,25.57
2023-04-16T13:59:10.633Z,25.56
2023-04-16T14:01:16.312Z,25.58
2023-04-16T14:03:21.766Z,25.58
2023-04-16T14:05:27.362Z,25.57
2023-04-16T14:07:32.488Z,25.58
2023-04-16T14:09:37.546Z,25.58
2023-04-16T14:11:42.591Z,25.57
2023-04-16T14:13:47.670Z,25.59
2023-04-16T14:15:52.749Z,25.6
2023-04-16T14:17:57.994Z,25.62
2023-04-16T14:20:03.248Z,25.64
2023-04-16T14:22:13.112Z,25.62
2023-04-16T14:24:18.127Z,25.62
2023-04-16T14:26:23.175Z,25.63
2023-04-16T14:28:28.342Z,25.61
2023-04-16T14:30:34.726Z,25.6
2023-04-16T14:32:39.806Z,25.59
2023-04-16T14:34:45.041Z,25.6
2023-04-16T14:36:52.775Z,25.59
2023-04-16T14:39:00.387Z,25.59
2023-04-16T14:41:08.329Z,25.6
2023-04-16T14:43:18.498Z,25.62
2023-04-16T14:45:23.528Z,25.61
2023-04-16T14:47:36.644Z,25.6
2023-04-16T14:49:45.115Z,25.6
2023-04-16T14:52:02.967Z,25.6
2023-04-16T14:54:15.465Z,25.62
2023-04-16T14:56:20.517Z,25.63
2023-04-16T14:58:28.597Z,25.63
2023-04-16T15:00:33.713Z,25.64
2023-04-16T15:02:41.564Z,25.62
2023-04-16T15:04:49.429Z,25.62
2023-04-16T15:06:58.668Z,25.63
2023-04-16T15:09:06.481Z,25.57
2023-04-16T15:11:13.257Z,25.59
2023-04-16T15:13:18.401Z,25.59
2023-04-16T15:15:25.694Z,25.61
2023-04-16T15:17:33.448Z,25.6
2023-04-16T15:19:38.612Z,25.58
2023-04-16T15:21:43.613Z,25.6
2023-04-16T15:24:04.845Z,25.61
2023-04-16T15:26:09.923Z,25.61
2023-04-16T15:28:14.973Z,25.61
2023-04-16T15:30:20.044Z,25.61
2023-04-16T15:32:27.502Z,25.62
2023-04-16T15:34:32.632Z,25.61
2023-04-16T15:36:37.713Z,25.62
2023-04-16T15:38:42.814Z,25.62
2023-04-16T15:40:47.876Z,25.57
2023-04-16T15:42:52.914Z,25.59
2023-04-16T15:44:58.053Z,25.62
2023-04-16T15:47:03.204Z,25.63
2023-04-16T15:49:08.477Z,25.61
2023-04-16T15:51:14.186Z,25.61
2023-04-16T15:53:21.942Z,25.63
2023-04-16T15:55:27.070Z,25.63
2023-04-16T15:57:32.117Z,25.64
2023-04-16T15:59:39.564Z,25.62
2023-04-16T16:01:55.988Z,25.65
2023-04-16T16:04:01.364Z,25.63
2023-04-16T16:06:10.258Z,25.61
2023-04-16T16:08:15.279Z,25.61
2023-04-16T16:10:22.937Z,25.6
2023-04-16T16:12:28.028Z,25.6
2023-04-16T16:14:33.071Z,25.6
2023-04-16T16:16:38.169Z,25.59
2023-04-16T16:18:43.359Z,25.56
2023-04-16T16:20:48.619Z,25.56
2023-04-16T16:22:53.679Z,25.55
2023-04-16T16:24:58.762Z,25.55
2023-04-16T16:27:03.880Z,25.54
2023-04-16T16:29:09.132Z,25.56
2023-04-16T16:31:14.784Z,25.57
2023-04-16T16:33:20.036Z,25.57
2023-04-16T16:35:25.063Z,25.58
2023-04-16T16:37:30.122Z,25.56
2023-04-16T16:39:37.245Z,25.58
2023-04-16T16:41:43.401Z,25.57
2023-04-16T16:43:48.519Z,25.57
2023-04-16T16:45:53.698Z,25.58
2023-04-16T16:47:58.775Z,25.57
2023-04-16T16:50:04.002Z,25.56
2023-04-16T16:52:09.160Z,25.56
2023-04-16T16:54:14.236Z,25.59
2023-04-16T16:56:19.318Z,25.55
2023-04-16T16:58:24.411Z,25.57
2023-04-16T17:00:29.442Z,25.53
2023-04-16T17:02:34.766Z,25.54
2023-04-16T17:04:40.472Z,25.55
2023-04-16T17:06:45.926Z,25.57
2023-04-16T17:08:51.228Z,25.57
2023-04-16T17:10:56.284Z,25.56
2023-04-16T17:13:01.435Z,25.57
2023-04-16T17:15:06.469Z,25.59
2023-04-16T17:17:11.570Z,25.59
2023-04-16T17:19:16.670Z,25.6
2023-04-16T17:21:21.780Z,25.59
2023-04-16T17:23:26.915Z,25.6
2023-04-16T17:25:32.050Z,25.59
2023-04-16T17:27:37.154Z,25.61
2023-04-16T17:29:44.891Z,25.61
2023-04-16T17:31:49.972Z,25.59
2023-04-16T17:33:55.344Z,25.59
2023-04-16T17:36:00.492Z,25.59
2023-04-16T17:38:05.571Z,25.6
2023-04-16T17:40:10.642Z,25.6
2023-04-16T17:42:15.824Z,25.59
2023-04-16T17:44:20.974Z,25.59
2023-04-16T17:46:26.115Z,25.58
2023-04-16T17:48:31.339Z,25.61
2023-04-16T17:50:38.305Z,25.61
2023-04-16T17:52:44.584Z,25.62
2023-04-16T17:54:49.665Z,25.61
2023-04-16T17:56:54.745Z,25.6
2023-04-16T17:58:59.784Z,25.62
2023-04-16T18:01:04.960Z,25.61
2023-04-16T18:03:10.190Z,25.61
2023-04-16T18:05:15.704Z,25.61
2023-04-16T18:07:20.756Z,25.63
2023-04-16T18:09:26.002Z,25.61
2023-04-16T18:11:31.319Z,25.64
2023-04-16T18:13:36.362Z,25.59
2023-04-16T18:15:41.501Z,25.58
2023-04-16T18:17:46.693Z,25.6
2023-04-16T18:19:51.982Z,25.59
2023-04-16T18:21:57.071Z,25.61
2023-04-16T18:24:02.153Z,25.61
2023-04-16T18:26:08.372Z,25.62
2023-04-16T18:28:15.595Z,25.64
2023-04-16T18:30:26.278Z,25.63
2023-04-16T18:32:32.521Z,25.64
2023-04-16T18:34:40.196Z,25.64
2023-04-16T18:36:45.483Z,25.66
2023-04-16T18:39:00.702Z,25.67
2023-04-16T18:41:06.892Z,25.66
2023-04-16T18:43:12.010Z,25.65
2023-04-16T18:45:21.721Z,25.68
2023-04-16T18:47:27.146Z,25.67
2023-04-16T18:49:32.280Z,25.69
2023-04-16T18:51:37.367Z,25.69
2023-04-16T18:53:42.534Z,25.68
2023-04-16T18:55:47.627Z,25.66
2023-04-16T18:57:52.733Z,25.65
2023-04-16T18:59:57.785Z,25.67
2023-04-16T19:02:02.876Z,25.67
2023-04-16T19:04:08.083Z,25.67
2023-04-16T19:06:13.523Z,25.69
2023-04-16T19:08:18.627Z,25.71
2023-04-16T19:10:23.828Z,25.73
2023-04-16T19:12:29.013Z,25.71
2023-04-16T19:14:34.153Z,25.72
2023-04-16T19:16:39.463Z,25.7
2023-04-16T19:18:44.983Z,25.72
2023-04-16T19:20:50.183Z,25.74
2023-04-16T19:22:55.388Z,25.72
2023-04-16T19:25:00.648Z,25.79
2023-04-16T19:27:05.690Z,25.77
2023-04-16T19:29:10.962Z,25.79
2023-04-16T19:31:16.396Z,25.82
2023-04-16T19:33:21.657Z,25.85
2023-04-16T19:35:26.771Z,25.87
2023-04-16T19:37:31.897Z,25.91
2023-04-16T19:39:36.922Z,25.94
2023-04-16T19:41:42.007Z,26
2023-04-16T19:43:47.025Z,26.03
2023-04-16T19:45:52.126Z,26.08
2023-04-16T19:47:57.648Z,26.1
2023-04-16T19:50:02.830Z,26.13
2023-04-16T19:52:07.850Z,26.15
2023-04-16T19:54:12.909Z,26.15
2023-04-16T19:56:18.045Z,26.18
2023-04-16T19:58:23.157Z,26.2
2023-04-16T20:00:28.184Z,26.25
2023-04-16T20:02:33.453Z,26.29
2023-04-16T20:04:38.968Z,26.34
2023-04-16T20:06:44.066Z,26.4
2023-04-16T20:08:49.102Z,26.41
2023-04-16T20:10:54.151Z,26.4
2023-04-16T20:12:59.244Z,26.44
2023-04-16T20:15:04.434Z,26.47
2023-04-16T20:17:09.642Z,26.51
2023-04-16T20:19:15.084Z,26.54
2023-04-16T20:21:23.129Z,26.55
2023-04-16T20:23:28.228Z,26.57
2023-04-16T20:25:33.296Z,26.57
2023-04-16T20:27:38.629Z,26.59
2023-04-16T20:29:43.856Z,26.59
2023-04-16T20:31:49.054Z,26.61
2023-04-16T20:33:54.099Z,26.61
2023-04-16T20:35:59.236Z,26.64
2023-04-16T20:38:04.274Z,26.64
2023-04-16T20:40:09.375Z,26.64
2023-04-16T20:42:14.485Z,26.64
2023-04-16T20:44:19.547Z,26.67
2023-04-16T20:46:24.671Z,26.71
2023-04-16T20:48:29.845Z,26.71
2023-04-16T20:50:34.905Z,26.7
2023-04-16T20:52:39.936Z,26.73
2023-04-16T20:54:45.102Z,26.71
2023-04-16T20:56:50.145Z,26.74
2023-04-16T20:58:55.171Z,26.76
2023-04-16T21:01:00.294Z,26.78
2023-04-16T21:03:05.437Z,26.78
2023-04-16T21:05:11.101Z,26.78
2023-04-16T21:07:16.152Z,26.78
2023-04-16T21:09:21.326Z,26.79
2023-04-16T21:11:26.856Z,26.8
2023-04-16T21:13:31.874Z,26.78
2023-04-16T21:15:36.902Z,26.8
2023-04-16T21:17:42.030Z,26.81
2023-04-16T21:19:47.348Z,26.83
2023-04-16T21:21:52.453Z,26.84
2023-04-16T21:23:57.612Z,26.87
2023-04-16T21:26:02.642Z,26.87
2023-04-16T21:28:07.740Z,26.88
2023-04-16T21:30:12.873Z,26.89
2023-04-16T21:32:17.914Z,26.9
2023-04-16T21:34:23.068Z,26.9
2023-04-16T21:36:28.130Z,26.9
2023-04-16T21:38:33.263Z,26.89
2023-04-16T21:40:38.349Z,26.9
2023-04-16T21:42:43.948Z,26.87
2023-04-16T21:44:49.116Z,26.87
2023-04-16T21:46:54.217Z,26.87
2023-04-16T21:48:59.550Z,26.76
2023-04-16T21:51:04.662Z,26.61
2023-04-16T21:53:09.793Z,26.49
2023-04-16T21:55:15.039Z,26.35
2023-04-16T21:57:20.348Z,26.27
2023-04-16T21:59:25.465Z,26.19
2023-04-16T22:01:30.570Z,26.1
2023-04-16T22:03:36.101Z,26.02
2023-04-16T22:05:41.953Z,25.96
2023-04-16T22:07:48.146Z,25.91
2023-04-16T22:09:53.213Z,25.88
2023-04-16T22:11:58.260Z,25.85
2023-04-16T22:14:03.384Z,25.82
2023-04-16T22:16:10.103Z,25.77
2023-04-16T22:18:16.577Z,25.72
2023-04-16T22:20:21.633Z,25.7
2023-04-16T22:22:26.708Z,25.69
2023-04-16T22:24:31.981Z,25.66
2023-04-16T22:26:37.041Z,25.63
2023-04-16T22:28:42.104Z,25.63
2023-04-16T22:30:47.172Z,25.59
2023-04-16T22:32:52.270Z,25.59
2023-04-16T22:34:57.520Z,25.58
2023-04-16T22:37:02.585Z,25.56
2023-04-16T22:39:07.715Z,25.54
2023-04-16T22:41:13.351Z,25.51
2023-04-16T22:43:18.460Z,25.5
2023-04-16T22:45:23.516Z,25.49
2023-04-16T22:47:28.597Z,25.48
2023-04-16T22:49:33.761Z,25.48
2023-04-16T22:51:38.818Z,25.46
2023-04-16T22:53:43.832Z,25.46
2023-04-16T22:55:48.954Z,25.44
2023-04-16T22:57:54.004Z,25.42
2023-04-16T22:59:59.090Z,25.41
2023-04-16T23:02:04.324Z,25.41
2023-04-16T23:04:09.517Z,25.39
2023-04-16T23:06:14.867Z,25.37
2023-04-16T23:08:19.918Z,25.38
2023-04-16T23:10:24.902Z,25.36
2023-04-16T23:12:29.976Z,25.35
2023-04-16T23:14:35.010Z,25.33
2023-04-16T23:16:40.089Z,25.32
2023-04-16T23:18:45.196Z,25.33
2023-04-16T23:20:50.264Z,25.31
2023-04-16T23:22:55.357Z,25.3
2023-04-16T23:25:00.446Z,25.29
2023-04-16T23:27:05.651Z,25.29
2023-04-16T23:29:10.955Z,25.27
2023-04-16T23:31:16.868Z,25.27
2023-04-16T23:33:22.123Z,25.26
2023-04-16T23:35:27.183Z,25.25
2023-04-16T23:37:32.246Z,25.23
2023-04-16T23:39:37.292Z,25.2
2023-04-16T23:41:42.485Z,25.2
2023-04-16T23:43:47.492Z,25.19
2023-04-16T23:45:52.568Z,25.18
2023-04-16T23:47:57.864Z,25.16
2023-04-16T23:50:03.214Z,25.14
2023-04-16T23:52:08.365Z,25.14
2023-04-16T23:54:13.497Z,25.12
2023-04-16T23:56:18.547Z,25.12
2023-04-16T23:58:23.741Z,25.12
